Time;durP1;ratioP1;P1;durP2;ratioP2;P2;SDS_P1;SDS_P2;PMS_P1;PMS_P2;Temp;Humidity;BMP_temperature;BMP_pressure;BME280_temperature;BME280_humidity;BME280_pressure;Samples;Min_cycle;Max_cycle;Signal;HPM_P1;HPM_P2
2021/03/04 00:03:08;;;;;;;35.07;16.40;;;;;;;7.35;74.13;100717.39;3429402;84;35926;-85
2021/03/04 00:08:09;;;;;;;34.40;17.77;;;;;;;7.37;74.06;100719.20;3432173;84;98595;-85
2021/03/04 00:13:10;;;;;;;37.10;18.70;;;;;;;7.37;74.11;100709.61;3441905;84;35287;-84
2021/03/04 00:18:11;;;;;;;34.57;17.70;;;;;;;7.33;74.23;100705.19;3449099;84;98338;-85
2021/03/04 00:23:12;;;;;;;39.73;17.97;;;;;;;7.29;74.32;100698.25;3453013;84;35008;-85
2021/03/04 00:28:13;;;;;;;37.97;17.07;;;;;;;7.24;74.31;100698.49;3496465;83;98220;-85
2021/03/04 00:33:14;;;;;;;41.97;17.63;;;;;;;7.21;74.55;100694.30;3484666;83;107392;-86
2021/03/04 00:38:15;;;;;;;38.47;18.70;;;;;;;7.16;74.95;100680.85;3486761;83;35571;-84
2021/03/04 00:43:16;;;;;;;34.93;16.20;;;;;;;7.20;74.84;100681.75;3482748;83;98724;-86
2021/03/04 00:48:17;;;;;;;38.03;16.17;;;;;;;7.21;75.06;100675.91;3485750;83;35604;-85
2021/03/04 00:53:18;;;;;;;32.63;16.50;;;;;;;7.24;75.28;100670.31;3490793;83;98772;-86
2021/03/04 00:58:19;;;;;;;36.50;16.30;;;;;;;7.24;75.08;100661.54;3492596;83;35022;-85
2021/03/04 01:03:20;;;;;;;33.10;17.23;;;;;;;7.24;75.20;100657.99;3490435;83;98631;-84
2021/03/04 01:08:21;;;;;;;34.00;16.93;;;;;;;7.22;75.26;100667.95;3484787;83;33268;-84
2021/03/04 01:13:23;;;;;;;36.73;16.70;;;;;;;7.19;75.47;100660.41;3471853;83;99310;-84
2021/03/04 01:18:24;;;;;;;39.63;18.30;;;;;;;7.15;75.53;100649.94;3488398;83;33157;-85
2021/03/04 01:23:26;;;;;;;34.10;17.20;;;;;;;7.13;75.73;100646.77;3476217;83;98645;-84
2021/03/04 01:28:27;;;;;;;38.23;18.40;;;;;;;7.07;75.78;100639.95;3407930;85;32952;-84
2021/03/04 01:33:28;;;;;;;37.73;17.33;;;;;;;7.02;75.97;100622.97;3473012;83;98780;-84
2021/03/04 01:38:29;;;;;;;33.30;17.33;;;;;;;6.99;76.19;100619.58;3459768;84;32871;-84
2021/03/04 01:43:30;;;;;;;35.20;17.33;;;;;;;6.93;76.49;100617.64;3435188;84;99000;-84
2021/03/04 01:48:31;;;;;;;38.93;19.23;;;;;;;6.89;76.52;100613.22;3442646;84;32726;-84
2021/03/04 01:53:32;;;;;;;39.30;17.90;;;;;;;6.84;76.84;100613.47;3451225;84;98650;-84
2021/03/04 01:58:34;;;;;;;40.80;17.57;;;;;;;6.78;77.32;100612.93;3440784;84;33173;-84
2021/03/04 02:03:36;;;;;;;35.77;17.53;;;;;;;6.75;77.40;100598.56;3451675;84;98809;-84
2021/03/04 02:08:48;;;;;;;38.80;17.60;;;;;;;6.74;77.36;100598.34;3457831;84;32772;-83
2021/03/04 02:14:18;;;;;;;35.90;16.80;;;;;;;6.74;77.41;100596.98;3455653;82;100034;-83
2021/03/04 02:19:44;;;;;;;39.60;18.97;;;;;;;6.66;77.40;100589.70;3455896;84;33936;-84
2021/03/04 02:25:26;;;;;;;40.67;18.77;;;;;;;6.61;77.70;100579.59;3476036;83;98916;-84
2021/03/04 02:30:30;;;;;;;35.47;18.23;;;;;;;6.55;77.78;100576.88;3496985;83;33237;-84
2021/03/04 02:35:35;;;;;;;42.23;19.57;;;;;;;6.45;78.39;100571.89;3506208;83;98872;-84
2021/03/04 02:40:38;;;;;;;39.73;21.70;;;;;;;6.36;78.47;100558.36;3458303;83;33288;-84
2021/03/04 02:45:42;;;;;;;42.70;20.12;;;;;;;6.34;78.73;100566.67;3477509;83;98797;-83
2021/03/04 02:50:49;;;;;;;42.00;19.73;;;;;;;6.26;79.57;100569.77;3478330;83;32687;-84
2021/03/04 02:55:51;;;;;;;36.93;19.62;;;;;;;6.19;79.43;100565.45;3468877;83;98929;-84
2021/03/04 03:00:53;;;;;;;42.20;21.43;;;;;;;6.15;79.76;100570.02;3494024;83;32740;-84
2021/03/04 03:05:54;;;;;;;40.37;21.00;;;;;;;6.14;79.90;100563.52;3479316;83;98829;-83
2021/03/04 03:10:57;;;;;;;41.63;19.17;;;;;;;6.11;80.14;100562.85;3480540;83;32802;-84
2021/03/04 03:15:58;;;;;;;47.20;23.00;;;;;;;6.03;80.45;100573.32;3474164;83;99143;-84
2021/03/04 03:20:59;;;;;;;52.93;23.23;;;;;;;5.96;80.61;100571.19;3487658;83;32774;-84
2021/03/04 03:26:00;;;;;;;44.37;23.70;;;;;;;5.90;80.95;100575.25;3477554;83;98480;-84
2021/03/04 03:31:02;;;;;;;39.67;21.83;;;;;;;5.87;81.05;100570.50;3486640;83;33587;-84
2021/03/04 03:36:04;;;;;;;51.30;23.83;;;;;;;5.83;81.03;100563.34;3482827;83;98390;-84
2021/03/04 03:41:07;;;;;;;45.27;23.50;;;;;;;5.77;81.19;100568.19;3469967;83;32765;-84
2021/03/04 03:46:10;;;;;;;43.37;21.03;;;;;;;5.73;81.28;100567.27;3483393;83;98574;-84
2021/03/04 03:51:14;;;;;;;46.87;24.07;;;;;;;5.66;81.51;100568.96;3485959;83;32736;-84
2021/03/04 03:56:15;;;;;;;46.28;23.98;;;;;;;5.65;81.60;100573.65;3472969;83;98536;-84
2021/03/04 04:01:19;;;;;;;49.70;26.30;;;;;;;5.64;82.31;100580.25;3465850;83;32967;-84
2021/03/04 04:06:20;;;;;;;51.18;24.37;;;;;;;5.66;82.55;100567.05;3477260;83;98888;-84
2021/03/04 04:11:25;;;;;;;47.37;23.40;;;;;;;5.72;82.50;100568.41;3466442;83;32723;-84
2021/03/04 04:16:27;;;;;;;52.43;25.73;;;;;;;5.76;82.80;100566.59;3481838;83;98514;-83
2021/03/04 04:21:28;;;;;;;69.50;33.57;;;;;;;5.78;83.34;100562.16;3486578;83;32793;-84
2021/03/04 04:26:29;;;;;;;63.93;31.47;;;;;;;5.81;83.79;100559.58;3462717;83;98894;-83
2021/03/04 04:31:30;;;;;;;59.23;29.33;;;;;;;5.90;83.79;100555.36;3457188;84;32773;-84
2021/03/04 04:36:31;;;;;;;59.47;28.87;;;;;;;5.96;83.77;100553.42;3446457;83;98820;-84
2021/03/04 04:41:32;;;;;;;62.40;28.93;;;;;;;6.03;84.30;100555.56;3456015;84;32759;-84
2021/03/04 04:46:33;;;;;;;67.00;33.53;;;;;;;6.10;83.77;100552.48;3457256;83;98862;-84
2021/03/04 04:51:35;;;;;;;67.57;33.73;;;;;;;6.12;84.04;100556.24;3442838;84;33227;-84
2021/03/04 04:56:37;;;;;;;63.73;31.57;;;;;;;6.19;83.79;100552.34;3446171;84;98769;-84
2021/03/04 05:01:37;;;;;;;71.97;35.63;;;;;;;6.21;83.72;100543.26;3462281;84;32681;-84
2021/03/04 05:06:39;;;;;;;68.00;33.03;;;;;;;6.26;83.80;100534.80;3455170;84;98493;-83
2021/03/04 05:11:40;;;;;;;74.80;36.97;;;;;;;6.11;84.07;100506.25;3451225;84;32877;-84
2021/03/04 05:16:41;;;;;;;69.37;33.80;;;;;;;6.19;83.85;100517.63;3454072;84;98378;-84
2021/03/04 05:21:42;;;;;;;71.53;35.80;;;;;;;6.21;83.60;100518.66;3464604;84;32746;-84
2021/03/04 05:26:43;;;;;;;72.93;35.93;;;;;;;6.23;83.34;100524.57;3450013;83;98818;-84
2021/03/04 05:31:44;;;;;;;67.37;34.43;;;;;;;6.26;83.21;100517.03;3460797;84;33224;-85
2021/03/04 05:36:45;;;;;;;65.17;34.85;;;;;;;6.28;82.79;100510.66;3456965;83;98567;-84
2021/03/04 05:41:46;;;;;;;66.30;32.67;;;;;;;6.28;82.51;100513.40;3436631;84;27575;-83
2021/03/04 05:46:47;;;;;;;68.33;33.47;;;;;;;6.30;82.35;100510.55;3453463;84;98880;-83
2021/03/04 05:51:52;;;;;;;71.60;34.70;;;;;;;6.31;82.01;100512.69;3465403;84;26973;-84
2021/03/04 05:56:55;;;;;;;69.97;35.63;;;;;;;6.26;82.03;100511.56;3451658;84;98491;-84
2021/03/04 06:01:57;;;;;;;68.30;34.00;;;;;;;6.23;81.98;100525.34;3459801;84;27638;-82
2021/03/04 06:06:59;;;;;;;69.63;33.57;;;;;;;6.18;81.84;100507.85;3449474;83;98502;-84
2021/03/04 06:12:07;;;;;;;68.83;33.70;;;;;;;6.16;81.73;100518.31;3458914;84;26760;-83
2021/03/04 06:17:19;;;;;;;64.80;34.30;;;;;;;6.14;81.78;100515.14;3436494;83;98475;-82
2021/03/04 06:22:30;;;;;;;64.53;34.40;;;;;;;6.15;81.74;100518.66;3460211;84;28366;-82
2021/03/04 06:27:34;;;;;;;83.13;44.17;;;;;;;6.14;81.82;100519.80;3446656;83;98720;-82
2021/03/04 06:32:37;;;;;;;68.57;36.73;;;;;;;6.15;81.66;100523.56;3451454;84;29123;-83
2021/03/04 06:37:42;;;;;;;64.05;31.17;;;;;;;6.20;81.61;100523.88;3444344;83;98472;-83
2021/03/04 06:42:44;;;;;;;58.87;28.97;;;;;;;6.21;81.37;100529.59;3454852;84;27521;-82
2021/03/04 06:47:45;;;;;;;57.53;28.07;;;;;;;6.18;80.81;100520.70;3441835;84;98415;-83
2021/03/04 06:52:47;;;;;;;56.27;26.73;;;;;;;6.15;80.25;100527.66;3450453;84;26474;-83
2021/03/04 06:58:03;;;;;;;58.97;28.03;;;;;;;6.15;80.26;100533.68;3446743;83;98539;-83
2021/03/04 07:03:04;;;;;;;65.83;31.17;;;;;;;6.15;80.20;100533.68;3449357;84;27518;-83
2021/03/04 07:08:06;;;;;;;54.40;26.53;;;;;;;6.18;79.84;100540.64;3447688;83;98204;-83
2021/03/04 07:13:08;;;;;;;51.20;26.93;;;;;;;6.19;79.63;100540.86;3453272;84;27489;-82
2021/03/04 07:18:11;;;;;;;54.15;25.75;;;;;;;6.22;79.49;100540.75;3451896;83;98268;-83
2021/03/04 07:23:12;;;;;;;52.13;25.40;;;;;;;6.25;79.02;100547.68;3451610;84;28327;-83
2021/03/04 07:28:13;;;;;;;54.53;26.27;;;;;;;6.29;78.86;100539.02;3461121;83;98539;-82
2021/03/04 07:33:15;;;;;;;56.07;26.07;;;;;;;6.34;79.07;100536.61;3470333;83;99267;-83
2021/03/04 07:38:26;;;;;;;45.97;24.23;;;;;;;6.36;78.95;100529.66;3467290;84;26053;-82
2021/03/04 07:43:27;;;;;;;50.63;23.70;;;;;;;6.37;78.47;100529.88;3461776;83;98658;-83
2021/03/04 07:48:28;;;;;;;52.53;22.43;;;;;;;6.37;78.08;100525.77;3445806;84;25989;-81
2021/03/04 07:53:30;;;;;;;48.33;21.97;;;;;;;6.34;77.78;100530.55;3436165;84;99095;-82
2021/03/04 07:58:38;;;;;;;69.97;31.73;;;;;;;6.37;77.36;100527.14;3456942;84;26274;-82
2021/03/04 08:03:49;;;;;;;58.80;25.17;;;;;;;6.38;77.51;100518.38;3450073;84;98317;-83
2021/03/04 08:08:51;;;;;;;49.67;23.67;;;;;;;6.43;77.09;100524.39;3470693;84;27468;-82
2021/03/04 08:13:52;;;;;;;57.30;24.53;;;;;;;6.43;77.04;100514.81;3460698;84;98656;-83
2021/03/04 08:18:59;;;;;;;50.23;23.00;;;;;;;6.49;77.33;100518.89;3455744;84;26326;-84
2021/03/04 08:24:00;;;;;;;;;;;;;;;6.56;77.19;100521.85;3448961;84;98856;-83
2021/03/04 08:29:11;;;;;;;55.17;25.37;;;;;;;6.65;76.89;100520.34;3466146;84;27484;-84
2021/03/04 08:34:12;;;;;;;55.50;25.57;;;;;;;6.68;77.21;100513.59;3498284;83;98921;-85
2021/03/04 08:39:15;;;;;;;55.67;26.40;;;;;;;6.75;76.96;100517.08;3508741;82;26521;-85
2021/03/04 08:44:18;;;;;;;63.70;28.62;;;;;;;6.82;76.80;100527.64;3500227;81;98907;-85
2021/03/04 08:49:21;;;;;;;51.23;24.77;;;;;;;6.93;76.74;100521.88;3503572;83;27427;-84
2021/03/04 08:54:29;;;;;;;53.15;26.27;;;;;;;6.94;76.46;100528.16;3440063;84;98752;-85
2021/03/04 08:59:30;;;;;;;52.90;26.33;;;;;;;6.86;76.47;100535.94;3474859;83;27715;-84
2021/03/04 09:04:31;;;;;;;53.93;27.30;;;;;;;6.79;76.42;100531.09;3473493;83;98644;-85
2021/03/04 09:09:32;;;;;;;53.20;27.07;;;;;;;6.78;76.64;100530.88;3487105;83;25876;-85
2021/03/04 09:14:34;;;;;;;55.50;33.13;;;;;;;6.80;76.56;100529.94;3480379;83;98663;-84
2021/03/04 09:19:41;;;;;;;52.53;26.40;;;;;;;6.76;76.73;100527.67;3483401;83;26109;-84
2021/03/04 09:24:45;;;;;;;46.95;23.87;;;;;;;6.80;76.90;100535.41;3475820;83;98560;-85
2021/03/04 09:29:46;;;;;;;54.93;26.47;;;;;;;6.88;77.08;100539.14;3440850;84;27463;-84
2021/03/04 09:34:47;;;;;;;54.33;27.40;;;;;;;6.89;76.96;100541.53;3436741;84;98734;-85
2021/03/04 09:39:50;;;;;;;51.97;24.27;;;;;;;6.98;76.77;100535.31;3479532;82;25961;-85
2021/03/04 09:44:55;;;;;;;47.73;23.37;;;;;;;6.95;76.48;100531.12;3473455;83;98797;-85
2021/03/04 09:49:57;;;;;;;47.03;22.93;;;;;;;6.92;76.15;100538.08;3478438;83;27660;-83
2021/03/04 09:55:15;;;;;;;45.73;22.73;;;;;;;6.84;75.76;100534.14;3411334;85;98555;-83
2021/03/04 10:00:23;;;;;;;47.90;23.13;;;;;;;6.81;75.79;100545.80;3457342;84;28002;-84
2021/03/04 10:05:29;;;;;;;48.63;24.57;;;;;;;6.71;75.82;100549.02;3418213;85;98815;-85
2021/03/04 10:10:33;;;;;;;50.78;23.70;;;;;;;6.67;75.85;100548.92;3473753;83;27575;-83
2021/03/04 10:15:42;;;;;;;46.30;22.13;;;;;;;6.56;76.17;100555.22;3415204;85;98859;-84
2021/03/04 10:20:46;;;;;;;40.37;19.23;;;;;;;6.46;75.73;100564.72;3453077;84;27625;-84
2021/03/04 10:25:48;;;;;;;35.90;18.23;;;;;;;6.30;75.86;100558.94;3476903;83;98689;-84
2021/03/04 10:30:50;;;;;;;38.87;20.47;;;;;;;6.23;75.58;100561.46;3505712;83;27567;-85
2021/03/04 10:35:51;;;;;;;46.37;22.10;;;;;;;6.25;75.62;100564.08;3506160;83;98821;-85
2021/03/04 10:45:52;;;;;;;41.17;19.23;;;;;;;6.32;75.06;100571.70;3886386;73;34812;-85
2021/03/04 10:50:53;;;;;;;41.70;19.57;;;;;;;6.24;74.50;100568.52;3789969;76;34986;-84
2021/03/04 10:55:54;;;;;;;43.83;19.03;;;;;;;6.26;74.27;100567.59;3725128;76;98561;-84
2021/03/04 11:00:55;;;;;;;40.20;19.07;;;;;;;6.24;74.27;100573.42;3688808;78;35485;-85
2021/03/04 11:05:56;;;;;;;41.33;20.20;;;;;;;6.25;74.20;100572.83;3680781;78;98630;-84
2021/03/04 11:10:58;;;;;;;42.13;21.17;;;;;;;6.19;74.11;100578.31;3695645;78;35555;-85
2021/03/04 11:15:59;;;;;;;42.47;19.80;;;;;;;6.19;74.79;100571.48;3696285;78;98356;-85
2021/03/04 11:21:00;;;;;;;39.13;19.50;;;;;;;6.18;73.98;100572.06;3705057;78;36188;-86
2021/03/04 11:26:01;;;;;;;35.00;16.80;;;;;;;6.20;74.04;100568.97;3658340;78;98657;-86
2021/03/04 11:31:02;;;;;;;33.20;17.87;;;;;;;6.28;74.17;100557.12;3687134;78;35476;-86
2021/03/04 11:36:04;;;;;;;35.43;17.80;;;;;;;6.27;73.53;100550.84;3692018;77;98629;-84
2021/03/04 11:41:05;;;;;;;42.10;18.70;;;;;;;6.29;73.89;100551.88;3727307;77;35025;-86
2021/03/04 11:46:06;;;;;;;41.73;17.90;;;;;;;6.35;73.70;100554.04;3715578;77;98641;-85
2021/03/04 11:51:07;;;;;;;41.43;17.60;;;;;;;6.24;72.80;100552.92;3707313;77;34968;-85
2021/03/04 11:56:08;;;;;;;41.77;18.33;;;;;;;6.07;73.54;100551.02;3715572;77;98442;-85
2021/03/04 12:01:09;;;;;;;41.63;18.00;;;;;;;5.90;73.73;100538.97;3720561;77;34993;-86
2021/03/04 12:06:10;;;;;;;40.17;17.45;;;;;;;5.76;73.83;100540.66;3709561;78;98664;-86
2021/03/04 12:11:12;;;;;;;42.27;16.40;;;;;;;5.69;74.30;100533.61;3714410;77;26448;-87
2021/03/04 12:16:13;;;;;;;41.20;16.30;;;;;;;5.51;74.69;100539.05;3711368;77;98579;-85
2021/03/04 12:21:14;;;;;;;42.55;16.77;;;;;;;5.33;74.16;100543.13;3713810;78;33527;-85
2021/03/04 12:26:15;;;;;;;41.07;17.00;;;;;;;5.14;74.60;100514.80;3697808;75;98793;-85
2021/03/04 12:31:16;;;;;;;44.83;17.87;;;;;;;5.32;74.83;100523.00;3692499;78;33139;-87
2021/03/04 12:36:18;;;;;;;43.57;17.77;;;;;;;5.40;74.90;100520.16;3682643;78;98840;-87
2021/03/04 12:41:19;;;;;;;40.27;18.70;;;;;;;5.49;74.89;100515.40;3700677;77;33813;-87
2021/03/04 12:46:20;;;;;;;39.07;16.70;;;;;;;5.54;74.47;100529.38;3684882;78;98668;-85
2021/03/04 12:51:21;;;;;;;34.17;15.57;;;;;;;5.39;73.93;100521.30;3699555;77;32644;-86
2021/03/04 12:56:22;;;;;;;33.57;14.47;;;;;;;5.29;74.26;100521.74;3687361;77;98642;-87
2021/03/04 13:01:23;;;;;;;36.00;14.83;;;;;;;5.22;74.44;100511.96;3700512;77;32639;-86
2021/03/04 13:06:24;;;;;;;31.77;14.03;;;;;;;5.30;74.66;100508.91;3654384;78;98489;-85
2021/03/04 13:11:26;;;;;;;30.53;13.33;;;;;;;5.30;74.71;100511.64;3635863;79;32651;-87
2021/03/04 13:16:28;;;;;;;26.33;11.53;;;;;;;5.30;74.30;100511.64;3630631;79;98721;-86
2021/03/04 13:21:30;;;;;;;26.50;12.60;;;;;;;5.21;74.23;100509.02;3633652;79;32659;-87
2021/03/04 13:26:31;;;;;;;20.03;10.77;;;;;;;5.26;74.48;100510.71;3646245;79;98907;-85
2021/03/04 13:31:32;;;;;;;28.52;11.33;;;;;;;5.22;73.76;100505.14;3676933;79;32746;-86
2021/03/04 13:36:34;;;;;;;23.03;10.77;;;;;;;5.23;74.00;100499.91;3719196;78;99200;-86
2021/03/04 13:41:35;;;;;;;22.27;10.83;;;;;;;5.26;74.08;100510.16;3749685;78;32796;-85
2021/03/04 13:46:36;;;;;;;20.13;10.07;;;;;;;5.23;73.86;100520.95;3696120;78;98493;-85
2021/03/04 13:51:37;;;;;;;20.30;9.93;;;;;;;5.19;73.50;100514.58;3703756;78;33850;-85
2021/03/04 13:56:46;;;;;;;20.67;9.93;;;;;;;5.13;73.86;100507.75;3671116;78;98685;-87
2021/03/04 14:01:42;;;;;;;23.83;9.50;;;;;;;5.16;74.06;100505.70;3616528;80;33172;-86
2021/03/04 14:06:43;;;;;;;22.23;9.53;;;;;;;5.12;73.52;100512.98;3675563;78;98176;-85
2021/03/04 14:11:44;;;;;;;22.70;9.63;;;;;;;5.07;73.63;100515.92;3672132;79;33210;-87
2021/03/04 14:16:45;;;;;;;18.52;8.58;;;;;;;5.01;73.74;100509.06;3680687;78;98137;-87
2021/03/04 14:21:46;;;;;;;16.67;8.03;;;;;;;4.96;73.78;100501.13;3684375;78;33283;-86
2021/03/04 14:26:47;;;;;;;15.53;7.58;;;;;;;4.93;73.14;100492.25;3674800;78;98739;-86
2021/03/04 14:31:48;;;;;;;20.83;9.67;;;;;;;4.86;73.44;100496.10;3690202;78;32755;-86
2021/03/04 14:36:50;;;;;;;26.30;12.87;;;;;;;4.82;73.80;100486.44;3678130;78;98451;-85
2021/03/04 14:41:51;;;;;;;39.20;16.30;;;;;;;4.69;73.75;100490.83;3693920;78;32658;-86
2021/03/04 14:46:52;;;;;;;27.47;11.80;;;;;;;4.59;74.10;100483.85;3621203;78;98554;-87
2021/03/04 14:51:53;;;;;;;23.10;8.97;;;;;;;4.63;74.16;100482.05;3631393;80;32665;-85
2021/03/04 14:56:54;;;;;;;22.83;8.07;;;;;;;4.71;74.25;100480.38;3626848;80;98694;-87
2021/03/04 15:01:55;;;;;;;23.25;7.92;;;;;;;4.75;74.03;100471.18;3622941;80;32646;-86
2021/03/04 15:06:56;;;;;;;21.50;9.80;;;;;;;4.67;74.05;100456.28;3580168;80;98455;-85
2021/03/04 15:11:58;;;;;;;20.87;10.37;;;;;;;4.84;74.10;100471.08;3699618;78;26511;-85
2021/03/04 15:16:59;;;;;;;24.30;9.43;;;;;;;4.80;73.76;100468.83;3625937;78;98523;-85
2021/03/04 15:22:00;;;;;;;23.93;10.27;;;;;;;4.81;73.92;100458.14;3618727;80;26346;-85
2021/03/04 15:27:01;;;;;;;31.75;12.50;;;;;;;4.68;74.23;100453.78;3577305;80;99387;-85
2021/03/04 15:32:05;;;;;;;24.50;10.27;;;;;;;4.60;74.40;100459.58;3578627;81;26468;-85
2021/03/04 15:37:06;;;;;;;26.40;11.57;;;;;;;4.55;74.44;100452.97;3663970;78;98430;-85
2021/03/04 15:42:09;;;;;;;20.90;9.13;;;;;;;4.47;74.46;100444.88;3673116;78;25994;-87
2021/03/04 15:47:10;;;;;;;21.07;12.90;;;;;;;4.48;74.17;100438.30;3645666;79;98335;-87
2021/03/04 15:52:11;;;;;;;20.90;10.23;;;;;;;4.44;74.41;100453.72;3634047;79;25951;-85
2021/03/04 15:57:12;;;;;;;38.93;15.77;;;;;;;4.47;74.50;100459.29;3633985;79;98689;-86
2021/03/04 16:02:13;;;;;;;59.43;22.63;;;;;;;4.56;74.36;100453.75;3641380;79;26413;-86
2021/03/04 16:07:14;;;;;;;38.00;15.03;;;;;;;4.56;74.36;100465.46;3626856;79;98868;-83
2021/03/04 16:12:16;;;;;;;32.50;12.20;;;;;;;4.54;74.28;100467.70;3625693;80;26061;-86
2021/03/04 16:17:17;;;;;;;44.53;18.67;;;;;;;4.61;74.58;100465.80;3615344;79;98529;-86
2021/03/04 16:22:18;;;;;;;32.63;17.77;;;;;;;4.45;74.50;100456.11;3618076;80;26449;-86
2021/03/04 16:27:19;;;;;;;20.73;10.80;;;;;;;4.48;74.37;100475.86;3660411;79;98823;-86
2021/03/04 16:32:20;;;;;;;21.10;9.33;;;;;;;4.39;74.82;100470.27;3674556;79;25990;-86
2021/03/04 16:37:21;;;;;;;18.00;8.40;;;;;;;4.30;74.81;100462.73;3683844;78;98429;-87
2021/03/04 16:42:23;;;;;;;18.97;7.83;;;;;;;4.21;74.99;100457.36;3700227;78;25821;-87
2021/03/04 16:47:27;;;;;;;15.23;6.00;;;;;;;4.10;75.39;100473.88;3707002;78;98664;-87
2021/03/04 16:52:27;;;;;;;16.87;8.60;;;;;;;4.05;75.75;100472.71;3706067;79;25942;-86
2021/03/04 16:57:28;;;;;;;16.87;7.27;;;;;;;4.01;76.37;100466.91;3703519;78;98295;-86
2021/03/04 17:02:29;;;;;;;16.30;6.60;;;;;;;4.06;76.80;100472.97;3705392;79;26471;-85
2021/03/04 17:07:30;;;;;;;17.67;7.63;;;;;;;4.06;77.21;100481.14;3701401;79;98613;-85
2021/03/04 17:12:31;;;;;;;29.33;13.40;;;;;;;4.14;77.50;100486.29;3707658;79;26415;-86
2021/03/04 17:17:32;;;;;;;21.40;10.13;;;;;;;4.13;77.86;100491.48;3692970;78;98450;-85
2021/03/04 17:22:34;;;;;;;20.83;10.27;;;;;;;4.10;77.79;100492.16;3697221;79;26761;-85
2021/03/04 17:27:35;;;;;;;17.27;8.77;;;;;;;4.05;78.05;100495.08;3701782;79;98464;-85
2021/03/04 17:32:36;;;;;;;23.37;10.23;;;;;;;3.97;78.32;100499.45;3705258;79;26525;-84
2021/03/04 17:37:37;;;;;;;22.03;10.03;;;;;;;3.89;78.79;100501.69;3699240;78;98327;-84
2021/03/04 17:42:38;;;;;;;22.58;10.00;;;;;;;3.80;79.03;100503.66;3698036;78;26117;-83
2021/03/04 17:47:39;;;;;;;22.20;10.07;;;;;;;3.78;79.30;100509.98;3703123;79;98176;-84
2021/03/04 17:52:40;;;;;;;22.90;11.00;;;;;;;3.83;79.68;100511.15;3695067;79;33141;-84
2021/03/04 17:57:41;;;;;;;20.83;10.00;;;;;;;3.96;79.50;100506.59;3696623;79;98665;-83
2021/03/04 18:02:45;;;;;;;20.13;10.10;;;;;;;4.05;79.69;100506.75;3706682;79;33082;-84
2021/03/04 18:07:47;;;;;;;33.20;18.03;;;;;;;4.08;79.55;100505.29;3703257;78;98530;-83
2021/03/04 18:12:48;;;;;;;21.90;12.33;;;;;;;4.18;79.51;100504.34;3710968;78;32730;-84
2021/03/04 18:17:49;;;;;;;33.70;17.70;;;;;;;4.17;79.23;100510.93;3693383;78;98554;-84
2021/03/04 18:22:50;;;;;;;25.27;13.67;;;;;;;4.06;79.47;100500.75;3701210;78;32671;-84
2021/03/04 18:27:51;;;;;;;26.57;11.63;;;;;;;3.94;79.87;100502.05;3694661;78;98560;-82
2021/03/04 18:32:52;;;;;;;25.50;13.23;;;;;;;3.74;80.42;100499.54;3698228;79;32744;-83
2021/03/04 18:37:53;;;;;;;30.60;13.70;;;;;;;3.71;80.63;100498.05;3658872;79;98723;-83
2021/03/04 18:42:55;;;;;;;61.23;31.10;;;;;;;3.73;81.28;100493.05;3657359;80;32748;-84
2021/03/04 18:47:57;;;;;;;47.63;22.80;;;;;;;3.76;81.46;100490.47;3655090;79;98506;-83
2021/03/04 18:52:58;;;;;;;38.63;18.00;;;;;;;3.84;81.46;100490.18;3663062;79;33303;-84
2021/03/04 18:57:59;;;;;;;24.40;13.60;;;;;;;3.88;81.49;100495.98;3514540;81;98704;-83
2021/03/04 19:03:00;;;;;;;28.90;13.73;;;;;;;3.92;81.65;100494.20;3536473;82;32677;-85
2021/03/04 19:08:01;;;;;;;22.50;12.23;;;;;;;3.95;81.74;100494.92;3630198;79;98640;-84
2021/03/04 19:13:03;;;;;;;26.53;13.73;;;;;;;3.94;81.75;100499.33;3654819;79;33550;-84
2021/03/04 19:18:05;;;;;;;24.90;13.50;;;;;;;3.83;81.77;100509.78;3676933;78;98402;-83
2021/03/04 19:23:06;;;;;;;22.60;11.43;;;;;;;3.78;81.82;100501.03;3677103;78;33320;-84
2021/03/04 19:28:07;;;;;;;20.60;9.63;;;;;;;3.73;81.89;100503.95;3709665;78;98291;-84
2021/03/04 19:33:08;;;;;;;21.07;10.47;;;;;;;3.62;82.17;100504.90;3710536;78;33077;-83
2021/03/04 19:38:09;;;;;;;20.87;11.43;;;;;;;3.56;82.33;100515.70;3664209;79;98410;-83
2021/03/04 19:43:10;;;;;;;19.20;8.90;;;;;;;3.57;82.48;100510.53;3682774;79;32975;-85
2021/03/04 19:48:11;;;;;;;18.93;8.60;;;;;;;3.63;82.49;100515.20;3653371;79;98374;-85
2021/03/04 19:53:12;;;;;;;19.27;8.57;;;;;;;3.76;82.60;100515.55;3653259;80;30398;-85
2021/03/04 19:58:13;;;;;;;21.33;9.60;;;;;;;3.91;82.54;100513.03;3636377;79;97993;-85
2021/03/04 20:03:14;;;;;;;20.37;10.93;;;;;;;3.93;82.40;100514.84;3647823;79;98753;-84
2021/03/04 20:08:16;;;;;;;22.10;11.43;;;;;;;3.99;82.29;100514.11;3654199;79;31781;-85
2021/03/04 20:13:17;;;;;;;21.87;11.10;;;;;;;3.96;82.37;100521.01;3654862;78;98596;-85
2021/03/04 20:18:18;;;;;;;26.70;13.30;;;;;;;3.89;82.30;100519.38;3647237;79;31993;-83
2021/03/04 20:23:19;;;;;;;22.47;11.63;;;;;;;3.86;82.33;100522.75;3648192;79;98497;-85
2021/03/04 20:28:21;;;;;;;24.32;11.57;;;;;;;3.78;82.45;100529.03;3662932;79;31795;-86
2021/03/04 20:33:23;;;;;;;25.10;11.53;;;;;;;3.69;82.94;100537.02;3645840;79;98668;-84
2021/03/04 20:38:24;;;;;;;20.20;9.60;;;;;;;3.63;83.16;100539.70;3641014;79;32384;-85
2021/03/04 20:43:25;;;;;;;20.47;10.47;;;;;;;3.58;83.45;100545.32;3638118;79;98482;-85
2021/03/04 20:48:26;;;;;;;21.27;9.83;;;;;;;3.65;83.68;100546.41;3661505;79;32119;-84
2021/03/04 20:53:27;;;;;;;22.60;11.03;;;;;;;3.77;83.61;100547.08;3661856;78;98913;-85
2021/03/04 20:58:28;;;;;;;23.77;11.97;;;;;;;3.84;83.64;100550.07;3688805;78;31733;-84
2021/03/04 21:03:29;;;;;;;25.20;12.87;;;;;;;3.84;83.55;100559.05;3674735;78;108077;-84
2021/03/04 21:08:30;;;;;;;25.90;12.23;;;;;;;3.84;83.54;100560.96;3655253;79;30158;-85
2021/03/04 21:13:32;;;;;;;22.90;12.77;;;;;;;3.71;83.77;100564.14;3686056;79;98859;-85
2021/03/04 21:18:33;;;;;;;27.30;13.77;;;;;;;3.56;83.97;100561.19;3711134;78;29978;-85
2021/03/04 21:23:34;;;;;;;25.40;13.07;;;;;;;3.46;84.18;100569.16;3700507;78;98675;-84
2021/03/04 21:28:36;;;;;;;24.03;12.40;;;;;;;3.39;84.44;100566.13;3704425;78;29950;-84
2021/03/04 21:33:37;;;;;;;21.62;11.90;;;;;;;3.34;84.81;100573.67;3695990;78;98876;-84
2021/03/04 21:38:38;;;;;;;20.73;11.37;;;;;;;3.34;84.77;100566.88;3706947;78;29900;-84
2021/03/04 21:43:40;;;;;;;18.10;9.50;;;;;;;3.36;84.78;100571.42;3696411;78;99096;-84
2021/03/04 21:48:41;;;;;;;18.10;9.37;;;;;;;3.26;84.97;100579.37;3622903;80;30339;-84
2021/03/04 21:53:42;;;;;;;19.03;9.27;;;;;;;3.20;85.56;100586.12;3617729;80;98463;-84
2021/03/04 21:58:43;;;;;;;16.27;8.20;;;;;;;3.03;85.64;100587.52;3635515;80;29435;-84
2021/03/04 22:03:44;;;;;;;20.12;9.80;;;;;;;2.89;85.83;100590.97;3638540;79;98719;-85
2021/03/04 22:08:45;;;;;;;17.73;7.93;;;;;;;2.78;85.65;100591.64;3662787;80;25859;-85
2021/03/04 22:13:46;;;;;;;15.73;6.37;;;;;;;2.68;87.11;100603.61;3628642;79;98424;-84
2021/03/04 22:18:47;;;;;;;13.80;4.70;;;;;;;2.51;86.04;100605.55;3684015;78;35517;-85
2021/03/04 22:23:48;;;;;;;10.33;4.00;;;;;;;2.31;86.67;100612.41;3670227;78;98566;-84
2021/03/04 22:28:49;;;;;;;8.73;4.40;;;;;;;2.15;86.48;100612.61;3680837;78;36188;-84
2021/03/04 22:33:50;;;;;;;9.90;4.73;;;;;;;2.10;86.52;100616.84;3683577;79;98236;-85
2021/03/04 22:38:51;;;;;;;9.23;4.23;;;;;;;2.08;86.74;100620.98;3684676;78;35015;-85
2021/03/04 22:43:53;;;;;;;13.03;4.73;;;;;;;2.04;87.08;100617.29;3652677;78;98812;-85
2021/03/04 22:48:54;;;;;;;13.58;5.75;;;;;;;2.02;87.59;100627.67;3673200;78;34957;-84
2021/03/04 22:53:55;;;;;;;16.77;5.83;;;;;;;2.00;86.97;100633.41;3685336;78;98168;-84
2021/03/04 22:58:56;;;;;;;14.87;5.37;;;;;;;1.90;87.09;100632.34;3692121;78;35044;-84
2021/03/04 23:03:57;;;;;;;11.10;4.37;;;;;;;1.88;87.22;100642.72;3676884;78;98431;-84
2021/03/04 23:08:58;;;;;;;11.40;4.43;;;;;;;1.80;87.41;100650.83;3623171;80;34974;-84
2021/03/04 23:13:59;;;;;;;11.00;4.28;;;;;;;1.66;87.61;100651.47;3623648;79;98294;-84
2021/03/04 23:19:00;;;;;;;10.13;3.87;;;;;;;1.59;87.86;100659.27;3627605;80;33114;-84